Time;durP1;ratioP1;P1;durP2;ratioP2;P2;SDS_P1;SDS_P2;PMS_P1;PMS_P2;Temp;Humidity;BMP_temperature;BMP_pressure;BME280_temperature;BME280_humidity;BME280_pressure;Samples;Min_cycle;Max_cycle;Signal;HPM_P1;HPM_P2
2023/08/30 00:00:11;;;;;;;471.27;425.93;;;;;;;24.84;73.82;98397.56;320699;30;5331;-72
2023/08/30 00:00:21;;;;;;;469.75;424.60;;;;;;;24.82;74.04;98396.91;318295;31;1376;-72
2023/08/30 00:00:31;;;;;;;456.90;412.30;;;;;;;24.82;74.12;98394.22;318804;30;4115;-72
2023/08/30 00:00:42;;;;;;;450.43;406.10;;;;;;;24.82;74.10;98399.59;319520;30;4243;-72
2023/08/30 00:00:52;;;;;;;454.15;409.77;;;;;;;24.82;74.11;98396.91;316692;30;4572;-72
2023/08/30 00:01:03;;;;;;;450.63;406.38;;;;;;;24.84;73.97;98400.22;313944;31;7338;-72
2023/08/30 00:01:13;;;;;;;454.27;410.13;;;;;;;24.84;74.04;98397.56;314469;31;3396;-72
2023/08/30 00:01:24;;;;;;;452.47;408.37;;;;;;;24.84;74.11;98396.72;316027;31;3234;-72
2023/08/30 00:01:34;;;;;;;453.52;409.38;;;;;;;24.84;73.98;98402.06;315314;31;3632;-72
2023/08/30 00:01:44;;;;;;;451.30;407.00;;;;;;;24.84;73.92;98402.06;310997;31;4232;-72
2023/08/30 00:01:55;;;;;;;450.02;405.85;;;;;;;24.84;74.00;98402.91;310715;31;5109;-72
2023/08/30 00:02:05;;;;;;;450.33;406.00;;;;;;;24.84;74.08;98396.72;312219;31;1701;-72
2023/08/30 00:02:16;;;;;;;447.63;403.30;;;;;;;24.85;73.92;98404.56;308149;31;6854;-72
2023/08/30 00:02:26;;;;;;;449.73;405.37;;;;;;;24.85;73.98;98401.91;307251;31;6506;-72
2023/08/30 00:02:36;;;;;;;459.07;414.67;;;;;;;24.86;74.16;98400.06;308309;32;1412;-72
2023/08/30 00:02:47;;;;;;;464.60;420.13;;;;;;;24.85;74.03;98401.06;307529;32;6082;-72
2023/08/30 00:02:58;;;;;;;468.77;424.20;;;;;;;24.84;73.97;98402.91;305121;32;5998;-72
2023/08/30 00:03:08;;;;;;;459.97;415.47;;;;;;;24.84;74.05;98397.56;304175;32;6098;-72
2023/08/30 00:03:19;;;;;;;457.47;413.07;;;;;;;24.84;74.06;98399.41;301892;32;1303;-72
2023/08/30 00:03:29;;;;;;;452.52;408.20;;;;;;;24.84;73.91;98400.22;300435;32;3829;-72
2023/08/30 00:03:39;;;;;;;460.73;416.33;;;;;;;24.85;73.98;98399.22;301592;32;4959;-72
2023/08/30 00:03:50;;;;;;;460.67;416.30;;;;;;;24.85;74.21;98396.53;304218;32;1587;-72
2023/08/30 00:04:00;;;;;;;462.77;417.73;;;;;;;24.85;73.97;98401.91;301172;32;6720;-72
2023/08/30 00:04:11;;;;;;;451.50;406.80;;;;;;;24.85;73.91;98404.56;300531;32;7322;-71
2023/08/30 00:04:22;;;;;;;447.70;403.03;;;;;;;24.86;74.24;98403.56;300453;32;1570;-71
2023/08/30 00:04:32;;;;;;;448.88;404.80;;;;;;;24.86;73.90;98400.88;299948;32;920;-72
2023/08/30 00:04:43;;;;;;;454.52;410.08;;;;;;;24.87;73.79;98402.53;298842;32;9360;-72
2023/08/30 00:04:58;;;;;;;466.37;421.60;;;;;;;24.88;73.96;98398.03;297491;33;9310;-72
2023/08/30 00:05:09;;;;;;;457.88;413.38;;;;;;;24.87;73.88;98402.53;296683;33;8122;-71
2023/08/30 00:05:19;;;;;;;450.60;406.55;;;;;;;24.88;73.94;98404.22;296004;33;833;-71
2023/08/30 00:05:30;;;;;;;457.97;413.63;;;;;;;24.88;74.05;98404.22;292850;33;8706;-71
2023/08/30 00:05:40;;;;;;;461.17;416.60;;;;;;;24.87;73.83;98407.91;291404;33;6744;-71
2023/08/30 00:05:51;;;;;;;460.73;416.08;;;;;;;24.88;74.04;98406.06;294871;33;1117;-71
2023/08/30 00:06:05;;;;;;;450.30;406.02;;;;;;;24.87;73.55;98405.22;293777;33;7122;-71
2023/08/30 00:06:15;;;;;;;453.45;409.02;;;;;;;24.87;73.39;98401.72;293332;33;8306;-72
2023/08/30 00:07:59;;;;;;;422.57;377.42;;;;;;;24.83;73.21;98401.25;2496932;27;20493;-72
2023/08/30 00:08:09;;;;;;;452.03;407.57;;;;;;;24.81;73.13;98403.28;355864;27;938;-72
2023/08/30 00:08:20;;;;;;;453.37;408.83;;;;;;;24.83;73.42;98401.25;353061;28;887;-72
2023/08/30 00:08:31;;;;;;;455.67;411.23;;;;;;;24.82;73.53;98396.06;350184;28;1365;-72
2023/08/30 00:08:41;;;;;;;450.73;406.52;;;;;;;24.82;73.39;98393.41;348835;28;859;-72
2023/08/30 00:08:52;;;;;;;452.10;408.13;;;;;;;24.82;73.38;98399.59;347251;28;1302;-72
2023/08/30 00:09:02;;;;;;;460.43;416.13;;;;;;;24.82;73.57;98404.09;347162;28;1448;-72
2023/08/30 00:09:13;;;;;;;466.90;422.15;;;;;;;24.81;73.86;98395.25;347255;28;1354;-72
2023/08/30 00:09:25;;;;;;;470.17;425.10;;;;;;;24.82;73.82;98398.75;347624;28;1196;-72
2023/08/30 00:09:35;;;;;;;471.83;426.92;;;;;;;24.80;73.89;98395.44;347804;28;983;-72
2023/08/30 00:09:46;;;;;;;461.33;416.65;;;;;;;24.79;73.88;98399.13;350183;28;830;-72
2023/08/30 00:09:58;;;;;;;453.77;409.27;;;;;;;24.78;73.89;98392.94;348550;28;844;-72
2023/08/30 00:10:10;;;;;;;450.35;405.85;;;;;;;24.77;73.60;98391.25;349860;28;4695;-72
2023/08/30 00:10:20;;;;;;;450.55;406.33;;;;;;;24.76;73.52;98400.31;348858;28;3194;-72
2023/08/30 00:10:31;;;;;;;448.20;404.07;;;;;;;24.75;73.50;98400.50;348716;28;928;-72
2023/08/30 00:10:42;;;;;;;455.73;411.20;;;;;;;24.72;73.44;98404.34;349937;28;3242;-72
2023/08/30 00:10:53;;;;;;;456.63;412.23;;;;;;;24.71;73.58;98397.34;347516;28;863;-72
2023/08/30 00:11:04;;;;;;;456.15;411.83;;;;;;;24.71;73.73;98397.34;348564;28;1279;-73
2023/08/30 00:11:14;;;;;;;453.48;409.25;;;;;;;24.71;73.59;98397.34;347389;28;820;-72
2023/08/30 00:11:25;;;;;;;453.27;409.03;;;;;;;24.70;73.84;98403.72;347123;28;1782;-72
2023/08/30 00:11:35;;;;;;;447.90;403.77;;;;;;;24.71;73.92;98402.69;347332;28;996;-72
2023/08/30 00:11:46;;;;;;;450.20;405.97;;;;;;;24.72;73.77;98401.69;347203;28;1329;-72
2023/08/30 00:11:56;;;;;;;456.20;411.73;;;;;;;24.72;73.80;98398.19;347868;28;1309;-72
2023/08/30 00:12:06;;;;;;;463.03;418.27;;;;;;;24.73;73.79;98399.84;348157;28;3476;-72
2023/08/30 00:12:17;;;;;;;468.37;423.47;;;;;;;24.75;73.55;98403.16;346622;28;1410;-72
2023/08/30 00:12:27;;;;;;;462.27;417.58;;;;;;;24.75;73.56;98404.00;347389;28;980;-72
2023/08/30 00:12:38;;;;;;;457.97;413.60;;;;;;;24.75;73.58;98403.16;346042;28;1239;-72
2023/08/30 00:12:48;;;;;;;449.60;405.35;;;;;;;24.75;73.50;98401.31;344496;28;1559;-72
2023/08/30 00:12:58;;;;;;;447.67;403.47;;;;;;;24.76;73.20;98394.97;344469;28;2009;-72
2023/08/30 00:13:09;;;;;;;446.87;402.47;;;;;;;24.77;73.34;98395.78;344821;28;1308;-72
2023/08/30 00:13:19;;;;;;;448.27;403.92;;;;;;;24.75;73.12;98398.66;344573;28;1014;-72
2023/08/30 00:13:31;;;;;;;450.70;406.40;;;;;;;24.72;73.79;98399.00;343305;28;1276;-72
2023/08/30 00:13:42;;;;;;;455.17;410.92;;;;;;;24.71;73.82;98394.66;344357;28;889;-72
2023/08/30 00:13:52;;;;;;;457.00;412.67;;;;;;;24.71;73.55;98396.50;343734;28;1517;-72
2023/08/30 00:14:05;;;;;;;461.27;416.70;;;;;;;24.72;73.47;98401.69;343998;28;1425;-72
2023/08/30 00:14:15;;;;;;;448.58;404.52;;;;;;;24.72;73.74;98382.94;343378;28;936;-72
2023/08/30 00:14:26;;;;;;;445.67;401.52;;;;;;;24.73;73.60;98399.84;345319;28;1245;-72
2023/08/30 00:14:36;;;;;;;445.23;400.97;;;;;;;24.74;73.75;98391.63;347822;28;1380;-72
2023/08/30 00:14:47;;;;;;;457.70;413.20;;;;;;;24.75;73.62;98406.69;346897;28;1309;-71
2023/08/30 00:14:57;;;;;;;456.15;411.80;;;;;;;24.76;73.72;98394.13;344337;28;1382;-71
2023/08/30 00:15:08;;;;;;;455.03;410.77;;;;;;;24.76;73.90;98389.59;344127;28;1933;-71
2023/08/30 00:15:18;;;;;;;453.02;408.80;;;;;;;24.77;73.77;98393.94;345838;28;1759;-72
2023/08/30 00:15:29;;;;;;;463.52;419.05;;;;;;;24.76;73.99;98394.97;344637;28;880;-72
2023/08/30 00:15:39;;;;;;;464.43;419.67;;;;;;;24.75;74.04;98393.28;346084;28;1737;-72
2023/08/30 00:15:50;;;;;;;460.30;415.58;;;;;;;24.74;73.84;98390.81;345809;28;1366;-72
2023/08/30 00:16:02;;;;;;;447.23;402.93;;;;;;;24.74;73.86;98401.50;345905;28;1271;-72
2023/08/30 00:16:12;;;;;;;448.92;404.73;;;;;;;24.71;73.55;98386.63;344515;28;1429;-73
2023/08/30 00:16:23;;;;;;;448.83;404.63;;;;;;;24.67;73.80;98384.53;342750;28;1317;-71
2023/08/30 00:16:33;;;;;;;455.50;411.03;;;;;;;24.67;73.66;98388.06;340545;28;1703;-71
2023/08/30 00:16:44;;;;;;;452.25;407.83;;;;;;;24.67;73.56;98398.75;340610;29;1475;-73
2023/08/30 00:16:54;;;;;;;456.00;411.60;;;;;;;24.68;73.67;98391.56;336154;29;1700;-72
2023/08/30 00:17:04;;;;;;;456.35;412.05;;;;;;;24.67;73.58;98390.72;338402;29;1219;-72
2023/08/30 00:17:15;;;;;;;460.40;416.03;;;;;;;24.68;73.37;98395.06;339207;29;2249;-72
2023/08/30 00:17:25;;;;;;;457.77;413.40;;;;;;;24.70;73.56;98389.50;339895;29;1358;-72
2023/08/30 00:17:36;;;;;;;463.48;418.88;;;;;;;24.69;73.12;98391.38;340492;29;1076;-72
2023/08/30 00:17:46;;;;;;;461.13;416.40;;;;;;;24.69;73.31;98383.34;341933;28;1258;-72
2023/08/30 00:17:56;;;;;;;452.45;408.00;;;;;;;24.70;73.23;98395.69;343974;28;1413;-72
2023/08/30 00:18:07;;;;;;;448.73;404.40;;;;;;;24.70;73.33;98393.00;342182;28;1825;-72
2023/08/30 00:18:18;;;;;;;448.90;404.73;;;;;;;24.71;73.48;98386.63;339290;29;1466;-72
2023/08/30 00:18:29;;;;;;;453.92;409.65;;;;;;;24.72;73.36;98393.66;332457;29;1675;-72
2023/08/30 00:18:39;;;;;;;448.38;404.33;;;;;;;24.71;73.23;98383.97;336380;29;2078;-73
2023/08/30 00:18:50;;;;;;;451.37;407.30;;;;;;;24.72;73.48;98393.66;335896;29;2343;-72
2023/08/30 00:19:00;;;;;;;451.65;407.42;;;;;;;24.72;73.44;98393.66;332883;29;870;-72
2023/08/30 00:19:11;;;;;;;460.53;415.93;;;;;;;24.71;73.39;98397.34;333892;29;1846;-72
2023/08/30 00:19:21;;;;;;;463.60;418.80;;;;;;;24.71;73.39;98396.50;336209;29;1818;-72
2023/08/30 00:19:31;;;;;;;467.77;422.98;;;;;;;24.70;73.55;98389.50;338198;29;873;-72
2023/08/30 00:19:42;;;;;;;458.97;414.60;;;;;;;24.71;73.34;98397.34;336197;29;3220;-72
2023/08/30 00:19:54;;;;;;;458.20;413.75;;;;;;;24.71;73.36;98392.00;332740;29;5375;-72
2023/08/30 00:20:06;;;;;;;448.90;404.63;;;;;;;24.71;73.54;98396.50;332815;29;2018;-72
2023/08/30 00:20:17;;;;;;;454.45;409.58;;;;;;;24.69;73.53;98394.06;331521;29;3514;-72
2023/08/30 00:20:27;;;;;;;447.05;402.73;;;;;;;24.70;73.53;98395.69;332335;29;2428;-72
2023/08/30 00:20:37;;;;;;;445.63;401.83;;;;;;;24.69;73.50;98394.06;333147;29;2444;-72
2023/08/30 00:20:48;;;;;;;449.00;405.27;;;;;;;24.67;73.65;98390.72;336295;29;2898;-72
2023/08/30 00:20:58;;;;;;;457.02;412.70;;;;;;;24.66;73.76;98394.41;339216;29;1431;-72
2023/08/30 00:21:09;;;;;;;461.33;416.67;;;;;;;24.66;73.61;98390.91;336199;29;2895;-72
2023/08/30 00:21:20;;;;;;;460.85;415.85;;;;;;;24.66;73.51;98388.22;331731;29;1737;-71
2023/08/30 00:21:31;;;;;;;449.60;405.02;;;;;;;24.66;73.72;98389.06;333611;29;1382;-71
2023/08/30 00:21:42;;;;;;;447.80;403.25;;;;;;;24.66;73.90;98393.59;332658;29;2268;-71
2023/08/30 00:21:53;;;;;;;443.20;398.98;;;;;;;24.65;73.91;98392.75;330516;29;2201;-71
2023/08/30 00:22:03;;;;;;;445.02;400.90;;;;;;;24.64;73.93;98395.59;327317;29;2534;-72
2023/08/30 00:22:14;;;;;;;450.10;406.03;;;;;;;24.65;73.78;98392.75;326738;30;837;-72
2023/08/30 00:22:24;;;;;;;450.10;405.95;;;;;;;24.65;73.88;98392.75;328611;29;2727;-71
2023/08/30 00:22:35;;;;;;;453.13;408.80;;;;;;;24.67;73.89;98392.56;328556;29;3170;-71
2023/08/30 00:22:46;;;;;;;451.50;406.70;;;;;;;24.67;74.20;98389.91;325882;30;908;-71
2023/08/30 00:22:56;;;;;;;455.90;411.10;;;;;;;24.68;73.88;98394.22;325862;30;3343;-71
2023/08/30 00:23:06;;;;;;;455.67;410.87;;;;;;;24.65;73.94;98387.41;325345;30;3763;-71
2023/08/30 00:23:17;;;;;;;456.65;412.23;;;;;;;24.64;73.86;98388.41;321437;30;1236;-72
2023/08/30 00:23:27;;;;;;;456.90;412.50;;;;;;;24.63;74.02;98394.78;319361;30;3325;-72
2023/08/30 00:23:39;;;;;;;450.80;406.73;;;;;;;24.63;73.93;98394.78;319046;30;2534;-72
2023/08/30 00:23:49;;;;;;;449.85;405.63;;;;;;;24.64;73.77;98391.09;315999;31;2195;-72
2023/08/30 00:24:00;;;;;;;456.80;412.33;;;;;;;24.64;73.96;98396.44;313869;31;807;-72
2023/08/30 00:24:10;;;;;;;456.50;411.90;;;;;;;24.65;73.96;98392.75;311744;31;2964;-72
2023/08/30 00:24:21;;;;;;;452.33;407.95;;;;;;;24.66;73.61;98391.75;311389;31;3484;-72
2023/08/30 00:24:31;;;;;;;443.10;398.90;;;;;;;24.66;73.71;98386.38;315111;31;876;-72
2023/08/30 00:24:42;;;;;;;439.67;395.58;;;;;;;24.65;73.84;98390.06;313166;31;3969;-72
2023/08/30 00:24:52;;;;;;;440.00;395.83;;;;;;;24.62;74.31;98386.94;311706;31;5119;-72
2023/08/30 00:25:03;;;;;;;448.25;403.75;;;;;;;24.62;74.20;98389.59;307890;31;4251;-72
2023/08/30 00:25:14;;;;;;;452.17;407.75;;;;;;;24.60;74.25;98395.13;305335;32;1481;-72
2023/08/30 00:25:24;;;;;;;455.33;410.90;;;;;;;24.58;74.16;98389.13;305100;32;4787;-72
2023/08/30 00:25:34;;;;;;;456.52;412.05;;;;;;;24.57;74.34;98390.16;305517;31;4688;-72
2023/08/30 00:25:45;;;;;;;454.53;410.03;;;;;;;24.58;74.46;98391.81;310634;31;933;-72
2023/08/30 00:25:55;;;;;;;452.33;407.50;;;;;;;24.57;74.10;98390.16;310607;31;3375;-73
2023/08/30 00:26:06;;;;;;;452.13;407.33;;;;;;;24.56;74.52;98390.34;310577;31;3395;-71
2023/08/30 00:26:16;;;;;;;448.73;403.93;;;;;;;24.55;74.41;98386.81;310117;31;1637;-71
2023/08/30 00:26:26;;;;;;;450.00;405.60;;;;;;;24.54;74.45;98390.50;304205;32;4377;-71
2023/08/30 00:26:37;;;;;;;447.20;403.00;;;;;;;24.55;74.37;98394.84;305312;31;5142;-71
2023/08/30 00:26:47;;;;;;;440.13;396.30;;;;;;;24.55;74.26;98392.16;306131;32;1216;-72
2023/08/30 00:26:57;;;;;;;439.35;395.50;;;;;;;24.57;74.45;98394.66;301952;32;6505;-71
2023/08/30 00:27:08;;;;;;;438.80;394.83;;;;;;;24.56;74.55;98396.50;303859;32;6228;-72
2023/08/30 00:27:20;;;;;;;443.98;399.88;;;;;;;24.56;74.27;98393.84;306405;32;5907;-71
2023/08/30 00:27:30;;;;;;;447.45;403.15;;;;;;;24.56;74.55;98391.16;303162;32;904;-71
2023/08/30 00:27:41;;;;;;;448.20;404.23;;;;;;;24.54;74.55;98391.34;302041;32;6428;-71
2023/08/30 00:27:51;;;;;;;444.02;400.15;;;;;;;24.54;74.34;98395.88;301914;32;6500;-71
2023/08/30 00:28:02;;;;;;;450.63;406.57;;;;;;;24.55;74.67;98397.53;305045;32;1587;-71
2023/08/30 00:28:12;;;;;;;460.63;416.13;;;;;;;24.57;74.42;98400.03;303124;32;4716;-71
2023/08/30 00:28:23;;;;;;;458.17;413.70;;;;;;;24.56;74.56;98396.50;302795;32;5087;-71
2023/08/30 00:28:33;;;;;;;451.23;407.00;;;;;;;24.57;74.32;98395.50;299844;32;6353;-72
2023/08/30 00:28:43;;;;;;;437.90;394.02;;;;;;;24.55;74.33;98394.84;298858;33;1568;-72
2023/08/30 00:28:54;;;;;;;440.83;396.97;;;;;;;24.53;74.75;98400.38;296424;32;7059;-72
2023/08/30 00:29:04;;;;;;;437.48;393.85;;;;;;;24.52;74.47;98396.03;293197;32;7821;-72
2023/08/30 00:29:14;;;;;;;444.03;400.30;;;;;;;24.53;74.65;98396.88;296185;33;3441;-72
2023/08/30 00:29:25;;;;;;;446.00;401.93;;;;;;;24.53;74.74;98394.19;293361;33;8205;-73
2023/08/30 00:29:35;;;;;;;447.40;403.33;;;;;;;24.53;74.47;98394.19;292180;33;8452;-72
2023/08/30 00:29:46;;;;;;;442.57;398.53;;;;;;;24.52;74.39;98393.38;292740;33;891;-72
2023/08/30 00:29:57;;;;;;;437.27;393.50;;;;;;;24.53;74.67;98399.53;289904;33;8804;-72
2023/08/30 00:30:09;;;;;;;441.00;396.95;;;;;;;24.53;74.46;98399.53;292018;33;9172;-73
2023/08/30 00:30:19;;;;;;;443.92;399.75;;;;;;;24.52;74.50;98397.88;290971;33;6586;-73
2023/08/30 00:30:29;;;;;;;449.90;405.33;;;;;;;24.52;74.62;98401.41;291311;33;1729;-72
2023/08/30 00:30:40;;;;;;;451.33;406.87;;;;;;;24.52;74.62;98397.88;289202;33;6861;-72
2023/08/30 00:30:55;;;;;;;441.03;397.20;;;;;;;24.51;74.65;98391.69;288519;34;8646;-72
2023/08/30 00:31:05;;;;;;;440.17;396.38;;;;;;;24.51;74.52;98398.91;285106;34;9956;-72
2023/08/30 00:31:15;;;;;;;446.40;402.33;;;;;;;24.51;74.42;98397.06;288221;34;839;-72
2023/08/30 00:33:08;;;;;;;418.39;370.93;;;;;;;24.47;74.24;98392.25;2493458;27;20513;-71
2023/08/30 00:33:20;;;;;;;436.43;392.63;;;;;;;24.48;74.21;98391.22;353009;28;806;-71
2023/08/30 00:33:30;;;;;;;438.27;394.20;;;;;;;24.46;74.11;98399.44;351581;28;1279;-73
2023/08/30 00:33:40;;;;;;;433.90;390.03;;;;;;;24.47;74.08;98397.59;350240;28;931;-72
2023/08/30 00:33:51;;;;;;;440.27;396.40;;;;;;;24.46;74.07;98404.78;347488;28;1259;-72
2023/08/30 00:34:01;;;;;;;440.67;396.93;;;;;;;24.47;74.10;98397.59;347282;28;963;-73
2023/08/30 00:34:12;;;;;;;445.60;401.57;;;;;;;24.47;74.04;98394.91;348381;28;1172;-73
2023/08/30 00:34:22;;;;;;;440.27;396.25;;;;;;;24.46;74.03;98399.44;348757;28;1218;-72
2023/08/30 00:34:32;;;;;;;439.10;395.17;;;;;;;24.45;74.00;98396.94;347753;28;1354;-72
2023/08/30 00:34:43;;;;;;;435.52;391.73;;;;;;;24.46;74.12;98395.94;346089;28;1214;-72
2023/08/30 00:34:53;;;;;;;434.67;391.03;;;;;;;24.44;73.94;98395.28;348853;28;1074;-72
2023/08/30 00:35:04;;;;;;;438.53;394.93;;;;;;;24.44;73.82;98397.94;350024;28;1023;-72
2023/08/30 00:35:14;;;;;;;443.48;399.80;;;;;;;24.46;73.98;98395.94;349835;28;1379;-72
2023/08/30 00:35:25;;;;;;;441.02;397.38;;;;;;;24.45;74.18;98396.94;348779;28;1110;-72
2023/08/30 00:35:35;;;;;;;433.27;389.83;;;;;;;24.44;73.86;98397.94;350146;28;899;-72
2023/08/30 00:35:45;;;;;;;435.57;391.90;;;;;;;24.42;73.97;98402.66;349243;28;792;-72
2023/08/30 00:35:57;;;;;;;441.52;397.48;;;;;;;24.39;74.11;98397.66;347607;28;864;-71
2023/08/30 00:36:08;;;;;;;443.40;399.27;;;;;;;24.37;74.23;98394.34;348448;28;928;-71
2023/08/30 00:36:18;;;;;;;435.50;391.73;;;;;;;24.36;74.02;98392.66;346118;28;908;-71
2023/08/30 00:36:29;;;;;;;436.08;392.45;;;;;;;24.38;74.00;98390.66;347388;28;836;-71
2023/08/30 00:36:39;;;;;;;435.80;392.20;;;;;;;24.38;74.22;98401.34;348837;28;1134;-71
2023/08/30 00:36:49;;;;;;;432.67;389.30;;;;;;;24.39;74.01;98394.97;347301;28;984;-71
2023/08/30 00:37:01;;;;;;;435.20;391.48;;;;;;;24.40;73.83;98391.28;347159;28;1108;-73
2023/08/30 00:37:11;;;;;;;443.80;399.50;;;;;;;24.40;74.19;98396.66;345982;28;1295;-73
2023/08/30 00:37:23;;;;;;;444.48;400.17;;;;;;;24.41;73.74;98406.34;346055;28;772;-72
2023/08/30 00:37:33;;;;;;;430.65;387.35;;;;;;;24.41;73.86;98392.97;344623;28;1577;-72
2023/08/30 00:37:44;;;;;;;426.87;383.63;;;;;;;24.40;73.67;98396.66;345678;28;1151;-72
2023/08/30 00:37:54;;;;;;;423.50;380.37;;;;;;;24.40;74.08;98396.66;343770;28;1366;-72
2023/08/30 00:38:04;;;;;;;435.65;392.00;;;;;;;24.38;73.86;98398.66;345431;28;937;-72
2023/08/30 00:38:15;;;;;;;437.47;393.73;;;;;;;24.37;73.98;98395.16;343716;28;2918;-72
2023/08/30 00:38:26;;;;;;;441.02;397.05;;;;;;;24.37;73.77;98397.84;343242;28;5129;-72
2023/08/30 00:38:36;;;;;;;440.13;396.20;;;;;;;24.35;73.66;98391.00;345780;28;5641;-71
2023/08/30 00:38:47;;;;;;;446.30;402.27;;;;;;;24.34;73.65;98394.69;349580;28;3334;-73
2023/08/30 00:38:57;;;;;;;443.47;399.63;;;;;;;24.33;73.77;98388.50;347894;28;2072;-73
2023/08/30 00:39:08;;;;;;;433.80;390.53;;;;;;;24.34;74.02;98394.69;348692;28;1365;-73
2023/08/30 00:39:18;;;;;;;423.02;380.23;;;;;;;24.33;73.98;98390.34;348033;28;1600;-73
2023/08/30 00:39:29;;;;;;;427.27;384.17;;;;;;;24.33;73.92;98393.03;347218;28;1230;-73
2023/08/30 00:39:39;;;;;;;434.90;391.33;;;;;;;24.32;73.50;98392.19;348642;28;1429;-73
2023/08/30 00:39:50;;;;;;;443.40;399.43;;;;;;;24.32;73.78;98391.38;345958;28;1551;-72
2023/08/30 00:40:00;;;;;;;434.77;391.15;;;;;;;24.32;73.68;98396.72;345006;28;901;-72
2023/08/30 00:40:11;;;;;;;428.90;385.57;;;;;;;24.34;73.66;98389.34;346469;28;987;-72
2023/08/30 00:40:24;;;;;;;429.45;386.05;;;;;;;24.34;73.78;98394.69;347460;28;943;-72
2023/08/30 00:40:41;;;;;;;430.98;387.60;;;;;;;24.35;73.88;98402.53;344641;28;1188;-72
2023/08/30 00:40:52;;;;;;;431.45;387.60;;;;;;;24.36;73.74;98393.50;342945;28;1361;-72
2023/08/30 00:41:02;;;;;;;430.38;386.42;;;;;;;24.36;73.78;98392.66;342234;28;1449;-72
2023/08/30 00:41:13;;;;;;;434.00;390.33;;;;;;;24.37;73.76;98394.34;339023;29;1361;-72
2023/08/30 00:41:23;;;;;;;436.17;392.52;;;;;;;24.37;73.96;98394.34;339370;29;1437;-72
2023/08/30 00:41:34;;;;;;;436.93;393.40;;;;;;;24.37;73.78;98399.69;342613;28;1969;-72
2023/08/30 00:41:45;;;;;;;436.70;393.30;;;;;;;24.35;74.09;98401.69;337097;29;1711;-72
2023/08/30 00:41:55;;;;;;;436.88;393.48;;;;;;;24.37;74.16;98399.69;333873;29;1364;-72
2023/08/30 00:42:07;;;;;;;442.90;399.37;;;;;;;24.37;74.13;98397.00;334954;29;1480;-72
2023/08/30 00:42:17;;;;;;;442.33;398.73;;;;;;;24.37;73.86;98405.88;335722;29;1408;-72
2023/08/30 00:42:27;;;;;;;438.10;394.57;;;;;;;24.39;73.92;98400.34;335384;29;894;-72
2023/08/30 00:42:40;;;;;;;442.80;398.85;;;;;;;24.39;73.86;98403.00;334187;29;999;-72
2023/08/30 00:42:51;;;;;;;441.77;397.75;;;;;;;24.38;73.89;98401.34;333034;29;1222;-72
2023/08/30 00:43:01;;;;;;;440.38;396.40;;;;;;;24.37;74.04;98394.34;334005;29;1605;-72
2023/08/30 00:43:12;;;;;;;435.13;391.40;;;;;;;24.35;74.01;98401.69;334149;29;1232;-72
2023/08/30 00:43:22;;;;;;;436.23;392.50;;;;;;;24.34;73.79;98395.53;327536;30;1973;-72
2023/08/30 00:43:33;;;;;;;444.50;400.40;;;;;;;24.34;74.03;98405.38;332767;29;1797;-72
2023/08/30 00:43:43;;;;;;;439.52;395.75;;;;;;;24.35;73.85;98401.69;335605;29;2015;-72
2023/08/30 00:43:54;;;;;;;434.20;390.83;;;;;;;24.34;73.50;98403.53;335497;29;1040;-72
2023/08/30 00:44:04;;;;;;;432.77;389.37;;;;;;;24.33;73.80;98398.38;330726;29;2254;-72
2023/08/30 00:44:14;;;;;;;439.23;395.53;;;;;;;24.33;73.85;98401.88;329648;29;1709;-72
2023/08/30 00:44:25;;;;;;;438.48;394.73;;;;;;;24.33;73.64;98398.38;330499;29;912;-72
2023/08/30 00:44:35;;;;;;;437.40;393.63;;;;;;;24.30;73.71;98398.72;333911;29;1025;-72
2023/08/30 00:44:46;;;;;;;431.45;387.73;;;;;;;24.30;73.70;98406.75;331868;29;1503;-72
2023/08/30 00:44:56;;;;;;;430.53;386.90;;;;;;;24.31;73.77;98406.56;330389;29;938;-72
2023/08/30 00:45:07;;;;;;;428.15;384.70;;;;;;;24.30;73.50;98406.75;322915;30;1859;-72
2023/08/30 00:45:17;;;;;;;433.13;389.53;;;;;;;24.29;73.46;98405.09;325748;30;2815;-72
2023/08/30 00:45:28;;;;;;;437.42;393.77;;;;;;;24.29;73.60;98402.41;328721;29;2493;-72
2023/08/30 00:45:38;;;;;;;437.00;393.53;;;;;;;24.30;73.32;98404.09;324229;30;1302;-72
2023/08/30 00:45:49;;;;;;;436.00;392.50;;;;;;;24.29;73.59;98403.25;325871;30;2494;-72
2023/08/30 00:45:59;;;;;;;436.80;393.20;;;;;;;24.30;73.18;98406.75;325633;30;2838;-72
2023/08/30 00:46:10;;;;;;;437.67;394.13;;;;;;;24.28;73.03;98406.09;324877;30;1649;-72
2023/08/30 00:46:20;;;;;;;429.52;386.35;;;;;;;24.26;73.29;98405.47;323959;30;2858;-72
2023/08/30 00:46:31;;;;;;;426.60;383.50;;;;;;;24.25;73.24;98406.47;321237;30;1780;-72
2023/08/30 00:46:42;;;;;;;426.10;383.00;;;;;;;24.25;73.25;98403.78;320692;30;1579;-72
2023/08/30 00:46:52;;;;;;;433.42;390.00;;;;;;;24.25;73.32;98395.75;316234;31;826;-72
2023/08/30 00:47:03;;;;;;;435.77;392.17;;;;;;;24.25;73.13;98401.13;315625;31;2567;-72
2023/08/30 00:47:13;;;;;;;433.95;389.98;;;;;;;24.25;73.22;98403.78;313678;31;2633;-72
2023/08/30 00:47:23;;;;;;;430.33;386.37;;;;;;;24.23;73.38;98403.13;311591;31;3094;-72
2023/08/30 00:47:35;;;;;;;428.87;385.17;;;;;;;24.21;73.38;98395.28;308551;31;8342;-72
2023/08/30 00:47:45;;;;;;;426.77;383.27;;;;;;;24.19;73.32;98408.00;311468;31;3430;-72
2023/08/30 00:47:55;;;;;;;438.63;394.63;;;;;;;24.18;73.62;98401.00;312705;31;898;-73
2023/08/30 00:48:06;;;;;;;446.50;402.07;;;;;;;24.19;73.87;98406.16;312117;31;3559;-73
2023/08/30 00:48:18;;;;;;;449.63;405.08;;;;;;;24.20;73.25;98402.47;310156;31;3697;-73
2023/08/30 00:48:28;;;;;;;435.27;391.38;;;;;;;24.21;73.17;98406.81;309194;31;3539;-72
2023/08/30 00:48:38;;;;;;;433.70;389.77;;;;;;;24.24;73.04;98402.13;308394;32;1255;-72
2023/08/30 00:48:49;;;;;;;429.58;386.05;;;;;;;24.24;73.13;98404.78;309801;31;2034;-72
2023/08/30 00:48:59;;;;;;;437.10;393.27;;;;;;;24.24;73.17;98404.78;308992;31;2223;-71
2023/08/30 00:49:10;;;;;;;431.88;388.00;;;;;;;24.24;73.10;98400.28;307226;32;1375;-72
2023/08/30 00:49:20;;;;;;;430.50;386.50;;;;;;;24.24;73.14;98407.47;302855;32;3086;-72
2023/08/30 00:49:31;;;;;;;430.13;386.30;;;;;;;24.24;73.00;98402.13;304287;31;3681;-72
2023/08/30 00:49:41;;;;;;;436.67;392.88;;;;;;;24.25;73.23;98401.13;305245;32;878;-72
2023/08/30 00:49:51;;;;;;;436.73;393.03;;;;;;;24.24;73.05;98402.13;305331;32;3943;-72
2023/08/30 00:50:02;;;;;;;437.60;393.90;;;;;;;24.24;73.49;98405.63;305188;32;4607;-72
2023/08/30 00:50:12;;;;;;;436.60;392.80;;;;;;;24.24;73.08;98400.28;302296;32;4755;-72
2023/08/30 00:50:23;;;;;;;436.30;392.15;;;;;;;24.20;73.19;98398.97;299107;33;936;-72
2023/08/30 00:50:34;;;;;;;436.10;391.90;;;;;;;24.17;73.11;98404.69;302071;32;4883;-72
2023/08/30 00:50:44;;;;;;;435.70;391.77;;;;;;;24.15;73.16;98399.50;303003;32;4394;-72
2023/08/30 00:50:54;;;;;;;433.80;390.17;;;;;;;24.14;73.15;98405.88;302695;32;1335;-72
2023/08/30 00:51:05;;;;;;;434.40;390.90;;;;;;;24.15;73.43;98407.53;299555;32;2523;-72
2023/08/30 00:51:15;;;;;;;433.40;390.03;;;;;;;24.17;73.21;98410.03;300380;32;3256;-72
2023/08/30 00:51:26;;;;;;;431.07;387.47;;;;;;;24.16;73.02;98409.19;301982;32;1397;-73
2023/08/30 00:51:36;;;;;;;423.25;379.80;;;;;;;24.15;73.32;98412.88;297409;32;4477;-73
2023/08/30 00:51:47;;;;;;;421.50;378.03;;;;;;;24.15;73.26;98399.50;298277;32;5539;-72
2023/08/30 00:52:03;;;;;;;424.87;381.60;;;;;;;24.13;73.25;98406.03;296763;32;5527;-72
2023/08/30 00:52:13;;;;;;;431.48;388.02;;;;;;;24.13;73.23;98403.38;296858;33;6346;-73
2023/08/30 00:52:24;;;;;;;428.63;385.20;;;;;;;24.12;73.40;98407.88;296086;33;945;-73
2023/08/30 00:52:34;;;;;;;428.63;385.13;;;;;;;24.10;73.36;98401.88;293957;33;6229;-73